createdAt,value
2022-11-09T00:01:50.087Z,10.57
2022-11-09T00:06:53.829Z,10.55
2022-11-09T00:11:57.425Z,10.52
2022-11-09T00:17:01.559Z,10.48
2022-11-09T00:22:05.073Z,10.45
2022-11-09T00:27:08.587Z,10.41
2022-11-09T00:32:12.106Z,10.36
2022-11-09T00:37:15.751Z,10.31
2022-11-09T00:42:19.341Z,10.26
2022-11-09T00:47:23.263Z,10.21
2022-11-09T00:52:26.785Z,10.12
2022-11-09T00:57:30.296Z,10.01
2022-11-09T01:02:33.812Z,9.89
2022-11-09T01:07:38.525Z,9.79
2022-11-09T01:12:41.964Z,9.68
2022-11-09T01:17:45.793Z,9.57
2022-11-09T01:22:49.100Z,9.45
2022-11-09T01:27:52.612Z,9.34
2022-11-09T01:32:56.028Z,9.25
2022-11-09T01:37:59.542Z,9.15
2022-11-09T01:43:18.871Z,9.08
2022-11-09T01:48:38.935Z,9.04
2022-11-09T01:53:45.411Z,9.00
2022-11-09T01:59:03.165Z,8.95
2022-11-09T02:04:30.439Z,8.96
2022-11-09T02:10:00.477Z,9.00
2022-11-09T02:15:07.192Z,9.03
2022-11-09T02:20:15.794Z,9.07
2022-11-09T02:25:19.625Z,9.08
2022-11-09T02:30:25.297Z,9.09
2022-11-09T02:35:28.704Z,9.09
2022-11-09T02:40:38.068Z,9.10
2022-11-09T02:45:41.364Z,9.10
2022-11-09T02:50:44.677Z,9.06
2022-11-09T02:55:48.194Z,9.06
2022-11-09T03:00:51.536Z,9.08
2022-11-09T03:05:55.018Z,9.09
2022-11-09T03:11:00.655Z,9.10
2022-11-09T03:16:08.617Z,9.12
2022-11-09T03:21:11.917Z,9.16
2022-11-09T03:26:15.890Z,9.20
2022-11-09T03:31:19.353Z,9.21
2022-11-09T03:36:22.664Z,9.25
2022-11-09T03:41:26.078Z,9.26
2022-11-09T03:46:29.599Z,9.24
2022-11-09T03:51:33.211Z,9.20
2022-11-09T03:56:36.522Z,9.20
2022-11-09T04:01:40.104Z,9.15
2022-11-09T04:06:43.694Z,9.16
2022-11-09T04:11:47.173Z,9.15
2022-11-09T04:16:50.587Z,9.14
2022-11-09T04:21:53.997Z,9.14
2022-11-09T04:26:57.516Z,9.14
2022-11-09T04:32:00.927Z,9.12
2022-11-09T04:37:04.544Z,9.09
2022-11-09T04:42:08.062Z,9.06
2022-11-09T04:47:11.474Z,9.01
2022-11-09T04:52:14.993Z,8.97
2022-11-09T04:57:18.608Z,8.97
2022-11-09T05:02:22.124Z,8.94
2022-11-09T05:07:25.843Z,8.95
2022-11-09T05:12:29.563Z,8.92
2022-11-09T05:17:33.080Z,8.85
2022-11-09T05:22:59.019Z,8.81
2022-11-09T05:28:02.536Z,8.78
2022-11-09T05:33:06.464Z,8.73
2022-11-09T05:38:09.877Z,8.69
2022-11-09T05:43:13.294Z,8.67
2022-11-09T05:48:18.135Z,8.66
2022-11-09T05:53:22.111Z,8.63
2022-11-09T05:58:25.782Z,8.52
2022-11-09T06:03:29.196Z,8.43
2022-11-09T06:08:33.220Z,8.42
2022-11-09T06:13:37.351Z,8.43
2022-11-09T06:18:41.074Z,8.48
2022-11-09T06:23:44.797Z,8.58
2022-11-09T06:28:48.207Z,8.67
2022-11-09T06:33:51.621Z,8.77
2022-11-09T06:38:55.339Z,8.84
2022-11-09T06:43:58.650Z,8.90
2022-11-09T06:49:02.166Z,8.99
2022-11-09T06:54:05.783Z,9.06
2022-11-09T06:59:09.504Z,9.17
2022-11-09T07:04:14.553Z,9.30
2022-11-09T07:09:18.483Z,9.44
2022-11-09T07:14:25.357Z,9.61
2022-11-09T07:19:30.223Z,9.75
2022-11-09T07:24:33.636Z,9.85
2022-11-09T07:29:37.047Z,9.92
2022-11-09T07:34:40.569Z,9.97
2022-11-09T07:39:44.082Z,10.00
2022-11-09T07:44:47.598Z,10.03
2022-11-09T07:49:51.010Z,10.10
2022-11-09T07:54:54.526Z,10.17
2022-11-09T07:59:59.420Z,10.34
2022-11-09T08:05:03.506Z,10.41
2022-11-09T08:10:07.226Z,10.53
2022-11-09T08:15:11.358Z,10.61
2022-11-09T08:20:15.809Z,10.61
2022-11-09T08:25:19.506Z,10.59
2022-11-09T08:30:23.263Z,10.49
2022-11-09T08:35:27.663Z,10.42
2022-11-09T08:40:32.795Z,10.40
2022-11-09T08:45:38.506Z,10.47
2022-11-09T08:50:41.897Z,10.57
2022-11-09T08:55:49.298Z,10.74
2022-11-09T09:00:53.230Z,10.98
2022-11-09T09:05:56.640Z,11.12
2022-11-09T09:11:06.827Z,11.20
2022-11-09T09:16:15.459Z,11.28
2022-11-09T09:21:18.883Z,11.32
2022-11-09T09:26:22.479Z,11.40
2022-11-09T09:31:25.996Z,11.49
2022-11-09T09:36:29.419Z,11.58
2022-11-09T09:41:35.590Z,11.68
2022-11-09T09:46:46.372Z,11.78
2022-11-09T09:51:57.261Z,11.89
2022-11-09T09:57:01.903Z,12.01
2022-11-09T10:02:23.647Z,12.18
2022-11-09T10:07:33.311Z,12.34
2022-11-09T10:12:51.874Z,12.59
2022-11-09T10:18:27.646Z,12.77
2022-11-09T10:23:59.630Z,12.95
2022-11-09T10:29:21.791Z,13.09
2022-11-09T10:34:37.789Z,13.33
2022-11-09T10:39:48.064Z,13.49
2022-11-09T10:44:51.374Z,13.67
2022-11-09T10:50:07.383Z,13.74
2022-11-09T10:55:17.247Z,13.73
2022-11-09T11:00:22.305Z,13.79
2022-11-09T11:05:28.389Z,13.78
2022-11-09T11:10:31.585Z,13.86
2022-11-09T11:15:40.164Z,13.96
2022-11-09T11:20:43.427Z,14.07
2022-11-09T11:25:56.180Z,14.23
2022-11-09T11:30:59.366Z,14.35
2022-11-09T11:36:27.562Z,14.46
2022-11-09T11:42:02.206Z,14.60
2022-11-09T11:47:25.702Z,14.63
2022-11-09T11:52:54.296Z,14.67
2022-11-09T11:58:39.489Z,14.60
2022-11-09T12:04:16.079Z,14.61
2022-11-09T12:09:28.605Z,14.52
2022-11-09T12:14:50.859Z,14.48
2022-11-09T12:20:00.007Z,14.48
2022-11-09T12:25:16.838Z,14.46
2022-11-09T12:30:24.329Z,14.36
2022-11-09T12:35:37.143Z,14.26
2022-11-09T12:40:52.279Z,14.24
2022-11-09T12:45:56.911Z,14.18
2022-11-09T12:51:02.823Z,14.10
2022-11-09T12:56:32.413Z,14.01
2022-11-09T13:01:35.544Z,13.88
2022-11-09T13:06:38.867Z,13.75
2022-11-09T13:11:48.932Z,13.64
2022-11-09T13:16:55.962Z,13.54
2022-11-09T13:21:59.099Z,13.48
2022-11-09T13:27:03.842Z,13.36
2022-11-09T13:32:12.991Z,13.33
2022-11-09T13:37:41.490Z,13.25
2022-11-09T13:42:53.793Z,13.16
2022-11-09T13:47:57.244Z,13.04
2022-11-09T13:53:01.356Z,12.97
2022-11-09T13:58:31.861Z,12.92
2022-11-09T14:03:35.017Z,12.87
2022-11-09T14:08:41.222Z,12.84
2022-11-09T14:14:03.378Z,12.79
2022-11-09T14:19:12.897Z,12.77
2022-11-09T14:24:20.615Z,12.71
2022-11-09T14:29:25.976Z,12.67
2022-11-09T14:34:29.896Z,12.62
2022-11-09T14:39:37.507Z,12.55
2022-11-09T14:44:44.506Z,12.53
2022-11-09T14:49:49.042Z,12.51
2022-11-09T14:54:53.994Z,12.47
2022-11-09T14:59:58.020Z,12.45
2022-11-09T15:05:04.501Z,12.46
2022-11-09T15:10:20.092Z,12.42
2022-11-09T15:15:26.317Z,12.38
2022-11-09T15:20:33.466Z,12.34
2022-11-09T15:25:54.259Z,12.28
2022-11-09T15:30:57.411Z,12.23
2022-11-09T15:36:07.802Z,12.21
2022-11-09T15:41:19.703Z,12.21
2022-11-09T15:46:28.801Z,12.18
2022-11-09T15:51:32.059Z,12.15
2022-11-09T15:56:35.271Z,12.09
2022-11-09T16:01:40.215Z,12.01
2022-11-09T16:06:46.581Z,11.96
2022-11-09T16:11:50.319Z,11.91
2022-11-09T16:16:53.630Z,11.89
2022-11-09T16:21:57.556Z,11.86
2022-11-09T16:27:01.276Z,11.83
2022-11-09T16:32:04.746Z,11.84
2022-11-09T16:37:08.203Z,11.84
2022-11-09T16:42:14.253Z,11.81
2022-11-09T16:47:19.593Z,11.81
2022-11-09T16:52:23.566Z,11.80
2022-11-09T16:57:27.094Z,11.84
2022-11-09T17:02:30.330Z,11.86
2022-11-09T17:07:42.016Z,11.88
2022-11-09T17:12:45.925Z,11.91
2022-11-09T17:17:49.536Z,11.91
2022-11-09T17:22:52.745Z,11.92
2022-11-09T17:27:56.054Z,11.88
2022-11-09T17:32:59.572Z,11.87
2022-11-09T17:38:03.905Z,11.85
2022-11-09T17:43:06.909Z,11.84
2022-11-09T17:48:10.226Z,11.83
2022-11-09T17:53:13.540Z,11.89
2022-11-09T17:58:17.165Z,11.92
2022-11-09T18:03:20.463Z,11.95
2022-11-09T18:08:23.795Z,11.94
2022-11-09T18:13:27.705Z,11.90
2022-11-09T18:18:30.902Z,11.85
2022-11-09T18:23:35.547Z,11.77
2022-11-09T18:28:39.367Z,11.80
2022-11-09T18:33:43.295Z,11.77
2022-11-09T18:38:46.708Z,11.73
2022-11-09T18:43:51.561Z,11.69
2022-11-09T18:48:54.971Z,11.63
2022-11-09T18:53:58.178Z,11.61
2022-11-09T18:59:01.488Z,11.57
2022-11-09T19:04:05.209Z,11.55
2022-11-09T19:09:35.051Z,11.51
2022-11-09T19:14:41.299Z,11.45
2022-11-09T19:19:44.632Z,11.42
2022-11-09T19:24:47.840Z,11.42
2022-11-09T19:29:51.047Z,11.42
2022-11-09T19:34:54.362Z,11.40
2022-11-09T19:39:57.567Z,11.37
2022-11-09T19:45:00.980Z,11.34
2022-11-09T19:50:04.869Z,11.35
2022-11-09T19:55:09.036Z,11.37
2022-11-09T20:00:12.714Z,11.37
2022-11-09T20:05:16.167Z,11.36
2022-11-09T20:10:19.378Z,11.42
2022-11-09T20:15:23.199Z,11.46
2022-11-09T20:20:26.511Z,11.46
2022-11-09T20:25:30.134Z,11.47
2022-11-09T20:30:33.547Z,11.46
2022-11-09T20:35:36.958Z,11.44
2022-11-09T20:40:40.394Z,11.43
2022-11-09T20:45:43.889Z,11.39
2022-11-09T20:50:48.362Z,11.40
2022-11-09T20:55:53.144Z,11.37
2022-11-09T21:01:07.799Z,11.29
2022-11-09T21:06:12.876Z,11.20
2022-11-09T21:11:17.138Z,11.11
2022-11-09T21:16:21.689Z,11.06
2022-11-09T21:21:25.480Z,10.98
2022-11-09T21:26:48.059Z,10.93
2022-11-09T21:31:51.465Z,10.88
2022-11-09T21:36:55.681Z,10.83
2022-11-09T21:41:59.115Z,10.79
2022-11-09T21:47:03.344Z,10.75
2022-11-09T21:52:07.165Z,10.72
2022-11-09T21:57:10.580Z,10.70
2022-11-09T22:02:14.094Z,10.65
2022-11-09T22:07:17.966Z,10.62
2022-11-09T22:12:40.078Z,10.61
2022-11-09T22:17:43.585Z,10.62
2022-11-09T22:22:47.100Z,10.62
2022-11-09T22:27:50.615Z,10.61
2022-11-09T22:32:54.131Z,10.57
2022-11-09T22:38:02.153Z,10.54
2022-11-09T22:43:05.464Z,10.53
2022-11-09T22:48:09.183Z,10.49
2022-11-09T22:53:12.701Z,10.56
2022-11-09T22:58:16.113Z,10.55
2022-11-09T23:03:20.383Z,10.54
2022-11-09T23:08:24.168Z,10.49
2022-11-09T23:13:27.788Z,10.41
2022-11-09T23:18:50.153Z,10.43
2022-11-09T23:23:55.521Z,10.40
2022-11-09T23:28:59.632Z,10.36
2022-11-09T23:34:08.838Z,10.44
2022-11-09T23:39:13.317Z,10.48
2022-11-09T23:44:16.526Z,10.47
2022-11-09T23:49:19.837Z,10.45
2022-11-09T23:54:23.047Z,10.37
2022-11-09T23:59:26.357Z,10.32
